Time;durP1;ratioP1;P1;durP2;ratioP2;P2;SDS_P1;SDS_P2;PMS_P1;PMS_P2;Temp;Humidity;BMP_temperature;BMP_pressure;BME280_temperature;BME280_humidity;BME280_pressure;Samples;Min_cycle;Max_cycle;Signal;HPM_P1;HPM_P2
2021/12/13 00:00:57;;;;;;;37.20;18.50;;;;;;;8.99;64.97;100627.77;117345;1185;21855;-57
2021/12/13 00:03:55;;;;;;;35.90;18.80;;;;;;;9.02;64.72;100631.11;117291;1185;22949;-61
2021/12/13 00:06:29;;;;;;;40.00;19.10;;;;;;;9.00;64.92;100638.10;117351;1186;21853;-61
2021/12/13 00:09:11;;;;;;;35.10;18.60;;;;;;;9.03;64.89;100636.00;117340;1185;23379;-56
2021/12/13 00:11:45;;;;;;;;;;;;;;;9.04;64.79;100631.96;117400;1184;21843;-57
2021/12/13 00:14:39;;;;;;;36.70;18.50;;;;;;;9.03;64.82;100628.11;117303;1186;22630;-57
2021/12/13 00:17:11;;;;;;;34.80;18.70;;;;;;;9.02;64.94;100625.67;117344;1186;21853;-57
2021/12/13 00:19:43;;;;;;;32.20;18.70;;;;;;;9.01;65.00;100628.64;117407;1185;21849;-62
2021/12/13 00:22:44;;;;;;;37.20;19.00;;;;;;;9.03;65.01;100629.00;117299;1186;21860;-56
2021/12/13 00:25:24;;;;;;;37.10;18.50;;;;;;;9.03;65.03;100628.64;117336;1186;22970;-57
2021/12/13 00:27:58;;;;;;;35.30;17.70;;;;;;;9.05;64.92;100627.23;117353;1185;21859;-58
2021/12/13 00:30:26;;;;;;;39.40;18.40;;;;;;;9.07;65.10;100618.81;117380;1183;22811;-60
2021/12/13 00:33:17;;;;;;;32.90;19.10;;;;;;;9.07;64.89;100614.80;117523;1185;21981;-58
2021/12/13 00:35:49;;;;;;;39.40;18.40;;;;;;;9.07;65.01;100612.00;117324;1184;21864;-57
2021/12/13 00:38:19;;;;;;;33.10;17.90;;;;;;;9.09;65.04;100608.14;117332;1186;22913;-58
2021/12/13 00:40:49;;;;;;;;;;;;;;;9.10;64.91;100604.98;117342;1186;23440;-58
2021/12/13 00:43:22;;;;;;;32.50;17.70;;;;;;;9.11;64.95;100599.73;117346;1186;22658;-63
2021/12/13 00:45:56;;;;;;;36.80;18.10;;;;;;;9.12;64.96;100599.02;117513;1185;22912;-58
2021/12/13 00:48:25;;;;;;;30.60;17.90;;;;;;;9.13;64.91;100598.86;117320;1182;22625;-57
2021/12/13 00:51:02;;;;;;;31.30;18.20;;;;;;;9.13;64.91;100597.27;117387;1184;21835;-57
2021/12/13 00:53:35;;;;;;;29.00;17.20;;;;;;;9.14;64.89;100595.35;117343;1186;21850;-57
2021/12/13 00:57:02;;;;;;;32.20;17.70;;;;;;;9.14;64.95;100594.83;117348;1184;22061;-62
2021/12/13 00:59:37;;;;;;;30.10;17.30;;;;;;;9.13;64.87;100588.52;116940;1188;22918;-61
2021/12/13 01:02:20;;;;;;;28.40;16.20;;;;;;;9.14;64.96;100588.16;117079;1186;21884;-57
2021/12/13 01:05:00;;;;;;;28.40;15.90;;;;;;;9.15;64.92;100590.27;117359;1185;23434;-58
2021/12/13 01:08:06;;;;;;;38.40;16.20;;;;;;;9.17;64.85;100583.98;117372;1185;21860;-57
2021/12/13 01:10:53;;;;;;;28.40;17.00;;;;;;;9.18;64.93;100585.72;117423;1183;21856;-57
2021/12/13 01:13:21;;;;;;;26.80;15.20;;;;;;;9.21;64.86;100589.91;117341;1187;23933;-57
2021/12/13 01:15:59;;;;;;;28.00;15.80;;;;;;;9.22;64.87;100589.72;117384;1182;22041;-57
2021/12/13 01:18:55;;;;;;;31.40;16.30;;;;;;;9.23;64.83;100589.38;117197;1187;22953;-62
2021/12/13 01:21:39;;;;;;;29.50;17.20;;;;;;;9.23;64.78;100583.08;117420;1185;21895;-62
2021/12/13 01:24:15;;;;;;;27.80;15.80;;;;;;;9.25;64.85;100582.73;117405;1185;21827;-57
2021/12/13 01:26:46;;;;;;;29.50;17.10;;;;;;;9.27;64.85;100585.16;117423;1184;22319;-62
2021/12/13 01:29:17;;;;;;;30.20;16.60;;;;;;;9.27;64.79;100587.96;117371;1185;22647;-57
2021/12/13 01:31:49;;;;;;;30.40;17.00;;;;;;;9.27;64.88;100590.77;117370;1184;23537;-57
2021/12/13 01:34:17;;;;;;;34.60;19.00;;;;;;;9.29;64.80;100594.60;117386;1188;21889;-61
2021/12/13 01:36:57;;;;;;;39.80;19.10;;;;;;;9.30;64.91;100595.11;117361;1185;21859;-61
2021/12/13 01:39:27;;;;;;;32.40;17.20;;;;;;;9.33;64.77;100595.63;117350;1186;21852;-57
2021/12/13 01:42:10;;;;;;;32.70;18.10;;;;;;;9.35;64.85;100598.78;117319;1186;21869;-62
2021/12/13 01:44:42;;;;;;;32.00;18.00;;;;;;;9.36;64.85;100592.65;117353;1185;21892;-57
2021/12/13 01:47:16;;;;;;;32.40;18.40;;;;;;;9.37;64.82;100588.98;117391;1185;21854;-62
2021/12/13 01:49:47;;;;;;;34.30;18.40;;;;;;;9.37;64.82;100593.36;117378;1186;23449;-57
2021/12/13 01:52:29;;;;;;;35.60;17.80;;;;;;;9.38;64.84;100594.21;117399;1188;22930;-57
2021/12/13 01:55:00;;;;;;;40.00;18.00;;;;;;;9.40;64.93;100594.91;117408;1179;21845;-61
2021/12/13 01:57:41;;;;;;;33.30;17.50;;;;;;;9.43;64.89;100589.13;117368;1184;21850;-61
2021/12/13 02:00:21;;;;;;;37.60;18.70;;;;;;;9.44;64.87;100587.54;117310;1185;22313;-62
2021/12/13 02:02:51;;;;;;;33.00;16.70;;;;;;;9.44;64.91;100584.04;117378;1185;21853;-62
2021/12/13 02:05:21;;;;;;;;;;;;;;;9.46;64.80;100585.61;117407;1185;23531;-62
2021/12/13 02:08:11;;;;;;;32.40;16.60;;;;;;;9.46;64.85;100584.21;117290;1189;21865;-64
2021/12/13 02:10:44;;;;;;;31.80;17.60;;;;;;;9.47;64.89;100585.44;117377;1183;22310;-57
2021/12/13 02:13:16;;;;;;;34.00;18.30;;;;;;;9.48;64.82;100591.90;117353;1186;21853;-57
2021/12/13 02:18:52;;;;;;;28.80;17.70;;;;;;;9.49;64.89;100589.63;117377;1185;21849;-61
2021/12/13 02:21:32;;;;;;;33.20;17.20;;;;;;;9.49;64.85;100587.51;117346;1185;22082;-57
2021/12/13 02:24:16;;;;;;;40.00;18.20;;;;;;;9.50;64.90;100570.52;117317;1186;21856;-57
2021/12/13 02:26:46;;;;;;;29.50;18.20;;;;;;;9.52;64.91;100569.46;117283;1187;21858;-62
2021/12/13 02:29:16;;;;;;;38.60;19.00;;;;;;;9.53;64.87;100574.70;117385;1185;21858;-57
2021/12/13 02:31:44;;;;;;;32.50;17.70;;;;;;;9.68;64.62;100577.09;117302;1184;21861;-62
2021/12/13 02:34:16;;;;;;;39.00;18.70;;;;;;;9.57;64.83;100581.87;117295;1184;23539;-62
2021/12/13 02:36:47;;;;;;;36.80;17.90;;;;;;;9.55;64.90;100588.02;117363;1182;21860;-58
2021/12/13 02:39:19;;;;;;;27.00;17.70;;;;;;;9.55;64.96;100591.00;117317;1186;22896;-58
2021/12/13 02:41:48;;;;;;;38.30;19.50;;;;;;;9.56;64.90;100589.23;117318;1186;22986;-58
2021/12/13 02:44:22;;;;;;;32.20;18.70;;;;;;;9.56;64.94;100584.86;117339;1185;21848;-61
2021/12/13 02:46:55;;;;;;;33.60;18.70;;;;;;;9.57;64.84;100581.70;117310;1186;21862;-62
2021/12/13 02:49:23;;;;;;;27.60;17.40;;;;;;;9.59;64.97;100578.90;117364;1185;23463;-63
2021/12/13 02:51:57;;;;;;;31.40;18.00;;;;;;;9.60;64.90;100577.48;117311;1180;21859;-58
2021/12/13 02:54:37;;;;;;;29.60;18.30;;;;;;;9.61;64.94;100572.75;117315;1186;21848;-58
2021/12/13 02:57:20;;;;;;;28.70;18.50;;;;;;;9.61;64.98;100566.78;117340;1187;21876;-62
2021/12/13 02:59:54;;;;;;;31.60;18.00;;;;;;;9.66;64.81;100566.06;117303;1179;21859;-62
2021/12/13 03:02:32;;;;;;;32.10;18.40;;;;;;;9.65;64.79;100562.56;117357;1186;21847;-58
2021/12/13 03:05:01;;;;;;;29.00;18.70;;;;;;;9.68;64.77;100563.42;117310;1186;21859;-58
2021/12/13 03:07:35;;;;;;;27.30;18.80;;;;;;;9.70;64.75;100567.64;117300;1186;21866;-62
2021/12/13 03:10:10;;;;;;;27.10;17.90;;;;;;;9.72;64.77;100571.10;117320;1185;21854;-59
2021/12/13 03:12:40;;;;;;;32.90;17.90;;;;;;;9.72;64.63;100577.58;117312;1181;23459;-63
2021/12/13 03:15:13;;;;;;;26.30;18.50;;;;;;;9.70;64.68;100586.73;117316;1184;23456;-58
2021/12/13 03:17:43;;;;;;;28.70;17.80;;;;;;;9.69;64.86;100596.19;117368;1185;22970;-63
2021/12/13 03:21:02;;;;;;;29.80;18.40;;;;;;;9.69;64.88;100598.47;117284;1186;21866;-64
2021/12/13 03:23:50;;;;;;;28.20;15.80;;;;;;;9.69;64.84;100591.63;117028;1185;21854;-58
2021/12/13 03:26:26;;;;;;;27.40;15.70;;;;;;;9.70;64.80;100587.23;117285;1188;21866;-63
2021/12/13 03:29:07;;;;;;;33.20;18.00;;;;;;;9.71;64.86;100579.02;117145;1190;23000;-58
2021/12/13 03:31:36;;;;;;;;;;;;;;;9.71;64.87;100582.70;117123;1187;21834;-58
2021/12/13 03:34:10;;;;;;;26.40;15.60;;;;;;;9.71;64.83;100597.91;117313;1186;22952;-63
2021/12/13 03:36:42;;;;;;;24.80;15.20;;;;;;;9.72;64.87;100604.58;117321;1185;21899;-58
2021/12/13 03:39:26;;;;;;;30.50;16.50;;;;;;;9.72;64.84;100605.10;117366;1186;21894;-58
2021/12/13 03:41:55;;;;;;;25.20;14.70;;;;;;;9.73;64.86;100600.19;117290;1186;22466;-62
2021/12/13 03:44:33;;;;;;;22.50;15.40;;;;;;;9.74;64.94;100599.48;117359;1186;23737;-58
2021/12/13 03:47:10;;;;;;;27.90;15.70;;;;;;;9.73;64.85;100595.64;117344;1185;23000;-58
2021/12/13 03:49:47;;;;;;;20.80;13.60;;;;;;;9.71;64.83;100601.08;117330;1186;24159;-58
2021/12/13 03:52:18;;;;;;;27.90;14.70;;;;;;;9.72;64.83;100601.59;117306;1186;23538;-59
2021/12/13 03:54:46;;;;;;;19.90;14.40;;;;;;;9.73;64.92;100599.84;117332;1186;21849;-58
2021/12/13 03:57:15;;;;;;;28.30;14.70;;;;;;;9.73;64.84;100598.25;117357;1184;21848;-59
2021/12/13 03:59:44;;;;;;;21.80;13.60;;;;;;;9.73;64.87;100594.23;117395;1186;21919;-63
2021/12/13 04:02:17;;;;;;;20.90;13.70;;;;;;;9.72;64.91;100590.37;117328;1184;22807;-57
2021/12/13 04:04:51;;;;;;;25.40;15.10;;;;;;;9.72;64.86;100593.70;117336;1186;21855;-62
2021/12/13 04:07:22;;;;;;;22.90;13.60;;;;;;;9.71;64.93;100590.39;117333;1188;21862;-60
2021/12/13 04:09:50;;;;;;;;;;;;;;;9.70;64.85;100592.16;117321;1184;23417;-63
2021/12/13 04:12:20;;;;;;;20.70;12.30;;;;;;;9.68;64.86;100592.86;117354;1184;21848;-58
2021/12/13 04:14:53;;;;;;;20.40;12.60;;;;;;;9.66;64.93;100596.20;117130;1189;21860;-62
2021/12/13 04:17:57;;;;;;;25.80;13.70;;;;;;;9.64;65.06;100599.89;117330;1185;21868;-62
2021/12/13 04:20:32;;;;;;;20.50;12.70;;;;;;;9.64;64.97;100592.70;117329;1186;21859;-62
2021/12/13 04:23:09;;;;;;;21.70;12.30;;;;;;;9.69;65.01;100588.12;117288;1183;22912;-61
2021/12/13 04:25:39;;;;;;;17.90;11.90;;;;;;;9.73;64.78;100585.64;117333;1185;21864;-58
2021/12/13 04:28:31;;;;;;;18.70;13.30;;;;;;;9.76;64.89;100587.90;117310;1185;21868;-62
2021/12/13 04:31:04;;;;;;;22.10;13.80;;;;;;;9.81;64.83;100587.19;117302;1186;22729;-59
2021/12/13 04:33:35;;;;;;;20.40;12.80;;;;;;;9.81;64.77;100592.09;117319;1186;23541;-58
2021/12/13 04:36:09;;;;;;;20.00;13.00;;;;;;;9.81;64.66;100593.67;117271;1190;22986;-58
2021/12/13 04:38:50;;;;;;;22.90;14.80;;;;;;;9.80;64.77;100598.57;117334;1186;21863;-58
2021/12/13 04:41:37;;;;;;;18.20;13.70;;;;;;;9.83;64.65;100598.73;117299;1186;21859;-62
2021/12/13 04:44:08;;;;;;;19.30;13.00;;;;;;;9.82;64.68;100604.70;117279;1186;23660;-60
2021/12/13 04:46:41;;;;;;;19.60;13.20;;;;;;;9.79;64.78;100607.34;117291;1186;23618;-62
2021/12/13 04:49:14;;;;;;;21.30;14.30;;;;;;;9.79;64.82;100610.48;117283;1186;21866;-65
2021/12/13 04:51:44;;;;;;;21.60;13.70;;;;;;;9.81;64.93;100610.66;117307;1186;23560;-59
2021/12/13 04:54:14;;;;;;;22.60;13.90;;;;;;;9.84;64.89;100615.56;117285;1186;21858;-59
2021/12/13 04:56:42;;;;;;;25.10;13.90;;;;;;;9.86;64.81;100619.77;117317;1186;22313;-59
2021/12/13 04:59:11;;;;;;;23.20;13.10;;;;;;;9.88;64.86;100623.26;117392;1186;21860;-65
2021/12/13 05:01:40;;;;;;;31.40;14.60;;;;;;;9.90;64.84;100625.87;117307;1183;21857;-59
2021/12/13 05:04:08;;;;;;;25.10;14.10;;;;;;;9.94;64.92;100620.58;117349;1188;24184;-64
2021/12/13 05:06:38;;;;;;;36.10;14.60;;;;;;;9.95;64.81;100618.12;117329;1186;23347;-66
2021/12/13 05:09:09;;;;;;;32.40;14.40;;;;;;;9.97;64.89;100614.60;117321;1186;23434;-66
2021/12/13 05:11:47;;;;;;;23.10;12.90;;;;;;;9.97;64.91;100610.91;117289;1186;21852;-58
2021/12/13 05:14:17;;;;;;;26.70;13.60;;;;;;;9.94;64.87;100613.39;117327;1186;21848;-58
2021/12/13 05:16:53;;;;;;;23.50;12.20;;;;;;;9.94;64.93;100619.87;117221;1189;21859;-65
2021/12/13 05:19:28;;;;;;;23.60;11.90;;;;;;;9.93;64.95;100616.89;117354;1185;21848;-65
2021/12/13 05:21:58;;;;;;;24.90;12.30;;;;;;;9.91;64.89;100615.70;117296;1186;21863;-57
2021/12/13 05:24:29;;;;;;;;;;;;;;;9.91;64.83;100612.90;117325;1186;21831;-62
2021/12/13 05:27:09;;;;;;;20.90;10.70;;;;;;;9.89;64.96;100615.88;117324;1186;21849;-63
2021/12/13 05:29:47;;;;;;;23.50;11.00;;;;;;;9.89;64.83;100618.86;117305;1186;21858;-57
2021/12/13 05:32:19;;;;;;;25.40;11.80;;;;;;;9.89;64.74;100627.10;117292;1182;21864;-63
2021/12/13 05:34:56;;;;;;;29.30;12.20;;;;;;;9.91;64.82;100629.70;117320;1186;21900;-57
2021/12/13 05:37:25;;;;;;;24.40;11.00;;;;;;;9.97;64.67;100634.06;117205;1186;21852;-63
2021/12/13 05:40:02;;;;;;;21.60;11.80;;;;;;;9.98;64.60;100634.77;117289;1185;23446;-56
2021/12/13 05:42:40;;;;;;;19.10;10.70;;;;;;;9.95;64.75;100640.92;117602;1186;21969;-63
2021/12/13 05:45:10;;;;;;;20.70;11.70;;;;;;;10.04;64.42;100641.90;117304;1185;21868;-63
2021/12/13 05:47:38;;;;;;;22.70;11.20;;;;;;;10.06;64.52;100647.69;117249;1186;21862;-57
2021/12/13 05:50:07;;;;;;;20.60;10.70;;;;;;;9.96;64.66;100646.17;117232;1186;21950;-57
2021/12/13 05:52:40;;;;;;;21.30;11.10;;;;;;;9.90;64.75;100642.52;117354;1188;22634;-64
2021/12/13 05:55:12;;;;;;;21.90;10.90;;;;;;;9.90;64.85;100640.23;117284;1183;23589;-63
2021/12/13 05:57:48;;;;;;;19.10;10.60;;;;;;;9.91;64.81;100649.16;117390;1189;22896;-63
2021/12/13 06:00:27;;;;;;;20.20;11.00;;;;;;;10.00;64.56;100656.13;117318;1184;21862;-64
2021/12/13 06:03:07;;;;;;;20.30;10.30;;;;;;;10.10;64.33;100661.52;117302;1184;23469;-64
2021/12/13 06:05:44;;;;;;;16.20;10.20;;;;;;;9.97;64.52;100657.38;117258;1185;23432;-64
2021/12/13 06:08:15;;;;;;;15.50;9.60;;;;;;;9.94;64.76;100659.67;117332;1189;21853;-64
2021/12/13 06:10:47;;;;;;;20.40;10.90;;;;;;;9.94;64.78;100659.84;117316;1184;23461;-57
2021/12/13 06:13:39;;;;;;;15.70;10.60;;;;;;;9.92;64.88;100648.10;117281;1183;23688;-58
2021/12/13 06:16:08;;;;;;;15.30;10.00;;;;;;;9.89;64.85;100650.75;117501;1186;23608;-64
2021/12/13 06:18:42;;;;;;;22.00;12.80;;;;;;;9.88;64.81;100641.30;117341;1185;21848;-60
2021/12/13 06:21:42;;;;;;;21.80;11.70;;;;;;;9.86;64.87;100646.56;117332;1182;23540;-58
2021/12/13 06:24:11;;;;;;;14.00;10.00;;;;;;;9.87;64.95;100649.02;117310;1186;21965;-62
2021/12/13 06:26:39;;;;;;;19.40;11.10;;;;;;;9.86;65.06;100648.15;117410;1183;21858;-63
2021/12/13 06:29:07;;;;;;;17.80;11.30;;;;;;;9.86;65.12;100643.94;117367;1186;21848;-58
2021/12/13 06:31:41;;;;;;;17.90;10.30;;;;;;;9.86;64.92;100639.73;117427;1185;22924;-59
2021/12/13 06:34:15;;;;;;;18.30;11.10;;;;;;;9.83;64.99;100637.12;117308;1185;21848;-58
2021/12/13 06:36:45;;;;;;;16.80;10.20;;;;;;;9.80;64.92;100634.34;117260;1186;21859;-58
2021/12/13 06:39:27;;;;;;;16.50;10.60;;;;;;;9.81;64.98;100633.27;117319;1186;21859;-63
2021/12/13 06:42:01;;;;;;;16.10;10.30;;;;;;;9.79;64.92;100639.06;117343;1185;21848;-63
2021/12/13 06:44:44;;;;;;;15.70;10.20;;;;;;;9.79;64.88;100653.08;117385;1186;21854;-62
2021/12/13 06:47:15;;;;;;;16.40;8.90;;;;;;;9.79;64.97;100663.77;117404;1185;21856;-62
2021/12/13 06:49:47;;;;;;;18.10;10.10;;;;;;;9.80;64.92;100670.60;117344;1186;22316;-58
2021/12/13 06:52:15;;;;;;;16.00;10.30;;;;;;;9.80;65.00;100673.23;117356;1183;22645;-58
2021/12/13 06:54:49;;;;;;;14.00;9.20;;;;;;;9.78;65.03;100682.18;117376;1186;21900;-58
2021/12/13 06:57:22;;;;;;;17.10;9.80;;;;;;;9.76;65.12;100685.52;117389;1186;21852;-61
2021/12/13 06:59:55;;;;;;;16.60;10.20;;;;;;;9.76;65.10;100687.45;117326;1184;21859;-62
2021/12/13 07:02:25;;;;;;;16.40;9.60;;;;;;;9.72;65.08;100689.04;117326;1186;23633;-62
2021/12/13 07:04:53;;;;;;;;;;;;;;;9.71;65.22;100685.73;117317;1186;23445;-61
2021/12/13 07:07:34;;;;;;;14.00;9.30;;;;;;;9.70;65.08;100687.98;117363;1185;22914;-57
2021/12/13 07:10:15;;;;;;;15.70;9.40;;;;;;;9.71;65.23;100692.90;117358;1185;23442;-61
2021/12/13 07:12:53;;;;;;;16.60;9.60;;;;;;;9.72;65.22;100691.85;117310;1186;23899;-57
2021/12/13 07:15:46;;;;;;;14.50;9.20;;;;;;;9.73;65.17;100687.62;117307;1185;22912;-64
2021/12/13 07:18:17;;;;;;;16.60;10.30;;;;;;;9.78;65.18;100684.64;117283;1186;21852;-64
2021/12/13 07:20:57;;;;;;;15.60;9.80;;;;;;;9.81;65.22;100686.20;117364;1185;21861;-64
2021/12/13 07:23:25;;;;;;;13.90;8.80;;;;;;;9.83;65.19;100696.52;117367;1186;21830;-60
2021/12/13 07:25:54;;;;;;;15.60;9.50;;;;;;;9.82;65.19;100703.54;117206;1188;21973;-60
2021/12/13 07:28:40;;;;;;;15.20;9.80;;;;;;;9.81;65.15;100703.02;117369;1186;22911;-60
2021/12/13 07:31:12;;;;;;;18.70;10.40;;;;;;;9.81;65.15;100707.75;117127;1185;23435;-63
2021/12/13 07:33:42;;;;;;;16.10;9.70;;;;;;;9.81;65.12;100716.88;117217;1187;21865;-64
2021/12/13 07:36:14;;;;;;;16.30;9.40;;;;;;;9.83;65.19;100722.64;117352;1186;23683;-63
2021/12/13 07:39:02;;;;;;;15.10;9.30;;;;;;;9.85;65.09;100722.81;117338;1186;21867;-61
2021/12/13 07:41:41;;;;;;;18.80;10.30;;;;;;;9.87;65.20;100723.69;117184;1188;24076;-61
2021/12/13 07:44:13;;;;;;;13.00;8.90;;;;;;;9.93;65.02;100721.20;117309;1186;21856;-60
2021/12/13 07:46:41;;;;;;;12.60;9.00;;;;;;;9.95;64.93;100718.56;117351;1185;22721;-63
2021/12/13 07:49:10;;;;;;;16.30;9.80;;;;;;;9.96;64.94;100714.00;117301;1186;22104;-60
2021/12/13 07:51:49;;;;;;;15.40;9.50;;;;;;;9.96;64.83;100709.96;117352;1185;21877;-64
2021/12/13 07:54:18;;;;;;;15.40;10.00;;;;;;;9.97;65.03;100705.93;117374;1186;24704;-63
2021/12/13 07:56:57;;;;;;;21.20;12.20;;;;;;;9.97;64.78;100712.25;117427;1186;21899;-63
2021/12/13 07:59:29;;;;;;;16.30;9.80;;;;;;;9.97;64.92;100715.23;117274;1186;21862;-64
2021/12/13 08:02:08;;;;;;;15.80;9.50;;;;;;;9.97;64.98;100720.30;117336;1186;21857;-60
2021/12/13 08:04:46;;;;;;;13.50;9.60;;;;;;;9.99;64.98;100722.05;117345;1185;21957;-64
2021/12/13 08:07:26;;;;;;;15.20;9.80;;;;;;;10.02;65.06;100723.80;117292;1186;24167;-60
2021/12/13 08:10:03;;;;;;;14.30;9.60;;;;;;;10.02;65.04;100719.05;117288;1190;21850;-64
2021/12/13 08:12:38;;;;;;;14.30;9.50;;;;;;;10.03;64.97;100717.13;117384;1186;22628;-61
2021/12/13 08:15:12;;;;;;;15.90;9.10;;;;;;;10.03;65.05;100719.94;117391;1186;21866;-60
2021/12/13 08:17:53;;;;;;;14.50;9.10;;;;;;;10.05;64.96;100722.20;117232;1186;22563;-64
2021/12/13 08:20:36;;;;;;;13.00;8.70;;;;;;;10.05;64.99;100728.52;117304;1186;21848;-64
2021/12/13 08:23:17;;;;;;;13.50;8.60;;;;;;;10.01;64.68;100718.36;117290;1181;21850;-63
2021/12/13 08:25:49;;;;;;;13.70;9.00;;;;;;;10.01;64.72;100707.84;117322;1184;21961;-60
2021/12/13 08:28:19;;;;;;;12.80;8.10;;;;;;;10.00;64.75;100708.20;117382;1183;21861;-64
2021/12/13 08:30:56;;;;;;;13.50;8.80;;;;;;;9.99;64.59;100705.40;117304;1185;24128;-64
2021/12/13 08:33:41;;;;;;;13.90;8.70;;;;;;;9.94;64.72;100692.45;117331;1189;22317;-64
2021/12/13 08:36:13;;;;;;;11.50;7.90;;;;;;;9.90;64.64;100694.23;117374;1186;24157;-61
2021/12/13 08:39:11;;;;;;;10.10;7.00;;;;;;;9.85;64.61;100700.38;117409;1182;22172;-60
2021/12/13 08:41:51;;;;;;;9.30;6.40;;;;;;;9.85;64.64;100701.43;116914;1189;21897;-60
2021/12/13 08:44:21;;;;;;;10.80;7.40;;;;;;;9.87;64.74;100706.86;116910;1187;23636;-62
2021/12/13 08:46:54;;;;;;;11.30;7.00;;;;;;;9.88;64.73;100710.38;116921;1189;22050;-64
2021/12/13 08:49:44;;;;;;;12.20;7.90;;;;;;;9.88;64.71;100719.13;116905;1186;21855;-61
2021/12/13 08:52:30;;;;;;;9.50;6.50;;;;;;;9.88;64.68;100728.94;116935;1189;22635;-62
2021/12/13 08:55:10;;;;;;;11.70;7.60;;;;;;;9.80;64.81;100737.20;116845;1189;22920;-61
2021/12/13 08:57:56;;;;;;;9.00;6.30;;;;;;;9.78;64.80;100746.15;117052;1186;21864;-63
2021/12/13 09:00:32;;;;;;;10.60;6.00;;;;;;;9.77;64.79;100748.42;116866;1186;23541;-64
2021/12/13 09:03:23;;;;;;;11.40;6.80;;;;;;;9.77;64.71;100747.38;116925;1189;24170;-64
2021/12/13 09:06:16;;;;;;;11.00;7.20;;;;;;;9.76;64.77;100747.55;116869;1186;22663;-64
2021/12/13 09:08:47;;;;;;;10.00;6.40;;;;;;;9.72;64.69;100750.72;116887;1187;21868;-60
2021/12/13 09:11:38;;;;;;;9.50;5.80;;;;;;;9.69;64.63;100754.77;116920;1189;21877;-60
2021/12/13 09:14:30;;;;;;;8.50;5.70;;;;;;;9.66;64.71;100756.71;116886;1188;21862;-60
2021/12/13 09:17:09;;;;;;;9.40;5.60;;;;;;;9.62;64.54;100752.50;116903;1186;21866;-64
2021/12/13 09:19:44;;;;;;;10.50;6.10;;;;;;;9.57;64.72;100751.64;117225;1188;21853;-64
2021/12/13 09:22:19;;;;;;;11.90;5.50;;;;;;;9.57;64.67;100748.30;117270;1185;23449;-65
2021/12/13 09:24:47;;;;;;;8.20;5.00;;;;;;;9.57;64.72;100750.40;117217;1183;22650;-64
2021/12/13 09:27:29;;;;;;;10.30;5.40;;;;;;;9.57;64.75;100751.64;117302;1186;21851;-64
2021/12/13 09:30:06;;;;;;;8.00;4.50;;;;;;;9.58;64.82;100755.50;117317;1186;21859;-60
2021/12/13 09:32:38;;;;;;;6.10;4.10;;;;;;;9.57;64.74;100752.67;117296;1186;23005;-65
2021/12/13 09:35:24;;;;;;;8.30;4.80;;;;;;;9.57;64.75;100750.23;117285;1186;21880;-60
2021/12/13 09:37:55;;;;;;;7.70;4.50;;;;;;;9.58;64.82;100746.38;117345;1185;21857;-65
2021/12/13 09:40:35;;;;;;;6.10;3.70;;;;;;;9.58;64.79;100738.31;117304;1186;22924;-61
2021/12/13 09:43:05;;;;;;;6.90;4.30;;;;;;;9.59;64.76;100738.66;117306;1186;21858;-65
2021/12/13 09:45:40;;;;;;;7.50;4.40;;;;;;;9.58;64.97;100735.69;117335;1183;23522;-65
2021/12/13 09:48:23;;;;;;;7.20;4.40;;;;;;;9.62;65.00;100734.80;117311;1186;21860;-64
2021/12/13 09:50:56;;;;;;;5.00;3.40;;;;;;;9.66;65.10;100737.95;117309;1186;21851;-65
2021/12/13 09:53:31;;;;;;;6.40;3.60;;;;;;;9.72;64.99;100736.88;117273;1186;21868;-61
2021/12/13 09:56:01;;;;;;;6.00;3.40;;;;;;;9.80;65.01;100736.50;117294;1186;21887;-60
2021/12/13 09:58:37;;;;;;;;;;;;;;;9.86;65.06;100733.16;117345;1182;23432;-61
2021/12/13 10:01:12;;;;;;;6.20;4.10;;;;;;;9.93;65.01;100736.81;117324;1186;23461;-65
2021/12/13 10:03:58;;;;;;;6.10;4.40;;;;;;;9.99;65.13;100737.13;117320;1186;23213;-60
2021/12/13 10:06:30;;;;;;;6.70;4.00;;;;;;;10.05;65.02;100735.54;117310;1186;23548;-64
2021/12/13 10:09:03;;;;;;;6.60;4.30;;;;;;;10.08;64.98;100730.61;117369;1186;21870;-61
2021/12/13 10:11:41;;;;;;;9.30;4.80;;;;;;;10.12;64.87;100724.64;117293;1183;21867;-61
2021/12/13 10:14:10;;;;;;;8.40;4.90;;;;;;;10.14;64.85;100721.65;117295;1186;21871;-64
2021/12/13 10:16:42;;;;;;;6.20;3.80;;;;;;;10.16;64.82;100716.90;117400;1186;23030;-61
2021/12/13 10:19:20;;;;;;;5.70;4.00;;;;;;;10.19;64.82;100709.15;117340;1185;23895;-61
2021/12/13 10:21:48;;;;;;;6.10;4.10;;;;;;;10.23;65.00;100702.65;117300;1180;21867;-61
2021/12/13 10:24:29;;;;;;;7.80;3.80;;;;;;;10.22;65.13;100697.20;117290;1188;21921;-61
2021/12/13 10:26:57;;;;;;;;;;;;;;;10.28;65.10;100694.21;117417;1185;21947;-63
2021/12/13 10:29:41;;;;;;;6.80;4.20;;;;;;;10.31;65.08;100695.41;117325;1183;23438;-60
2021/12/13 10:32:42;;;;;;;6.00;4.20;;;;;;;10.31;65.01;100688.92;117245;1186;21871;-61
2021/12/13 10:35:19;;;;;;;7.60;4.20;;;;;;;10.30;65.02;100687.53;116862;1189;21849;-61
2021/12/13 10:37:51;;;;;;;7.00;4.40;;;;;;;10.31;64.99;100686.29;116814;1189;24370;-62
2021/12/13 10:40:30;;;;;;;8.40;4.60;;;;;;;10.35;64.94;100686.27;116982;1185;22632;-58
2021/12/13 10:43:13;;;;;;;7.00;3.70;;;;;;;10.37;64.91;100682.05;116893;1189;22092;-60
2021/12/13 10:45:48;;;;;;;8.10;4.30;;;;;;;10.33;64.93;100672.60;116847;1189;21861;-61
2021/12/13 10:48:17;;;;;;;6.10;3.90;;;;;;;10.29;64.78;100672.98;116876;1186;21860;-58
2021/12/13 10:50:49;;;;;;;7.70;5.30;;;;;;;10.25;64.79;100678.61;116871;1187;21900;-58
2021/12/13 10:53:20;;;;;;;7.00;4.40;;;;;;;10.19;64.69;100682.32;116867;1189;21864;-58
2021/12/13 10:55:58;;;;;;;8.40;4.60;;;;;;;10.15;64.68;100684.29;116869;1189;21981;-58
2021/12/13 10:58:29;;;;;;;7.80;3.90;;;;;;;10.10;64.67;100687.28;116887;1186;21910;-61
2021/12/13 11:01:05;;;;;;;7.20;3.90;;;;;;;10.10;64.71;100680.27;116876;1185;22844;-61
2021/12/13 11:03:34;;;;;;;6.60;4.60;;;;;;;10.12;64.76;100675.73;117010;1189;23438;-61
2021/12/13 11:06:02;;;;;;;6.50;4.20;;;;;;;10.11;64.69;100662.91;116849;1189;22584;-60
2021/12/13 11:08:31;;;;;;;6.10;3.70;;;;;;;10.08;64.63;100664.85;116914;1186;23480;-61
2021/12/13 11:11:06;;;;;;;8.20;5.20;;;;;;;10.06;64.68;100665.75;117068;1186;22626;-60
2021/12/13 11:13:37;;;;;;;6.80;4.10;;;;;;;10.05;64.85;100662.42;117236;1186;21859;-58
2021/12/13 11:16:18;;;;;;;7.80;3.90;;;;;;;10.11;64.62;100660.29;117199;1186;21845;-59
2021/12/13 11:18:46;;;;;;;5.80;3.90;;;;;;;10.16;64.55;100655.70;117274;1186;21853;-58
2021/12/13 11:21:20;;;;;;;7.70;4.20;;;;;;;10.10;64.51;100661.52;117288;1186;23660;-61
2021/12/13 11:23:48;;;;;;;7.40;4.20;;;;;;;10.03;64.49;100666.81;117135;1189;21870;-61
2021/12/13 11:26:18;;;;;;;9.20;5.00;;;;;;;10.01;64.53;100671.38;117338;1182;22846;-60
2021/12/13 11:28:47;;;;;;;8.40;5.30;;;;;;;10.04;64.44;100674.70;117243;1188;21859;-61
2021/12/13 11:31:29;;;;;;;7.70;4.70;;;;;;;10.09;64.47;100684.84;117187;1186;22080;-59
2021/12/13 11:34:02;;;;;;;5.10;3.70;;;;;;;10.10;64.40;100692.89;117294;1186;21865;-60
2021/12/13 11:37:12;;;;;;;5.70;3.20;;;;;;;10.12;64.42;100699.03;117242;1186;22862;-63
2021/12/13 11:39:49;;;;;;;6.20;4.30;;;;;;;10.18;64.47;100703.02;117387;1186;21956;-58
2021/12/13 11:42:43;;;;;;;7.90;5.00;;;;;;;10.19;64.35;100698.64;117293;1186;23474;-60
2021/12/13 11:45:58;;;;;;;7.80;4.60;;;;;;;10.14;64.25;100696.56;117259;1186;22333;-60
2021/12/13 11:49:02;;;;;;;7.90;4.70;;;;;;;10.01;64.49;100689.26;117610;1185;21851;-61
2021/12/13 11:52:09;;;;;;;6.30;3.70;;;;;;;9.96;64.54;100690.34;117323;1186;21867;-59
2021/12/13 11:55:08;;;;;;;9.00;5.30;;;;;;;9.99;64.46;100695.41;117291;1182;21876;-61
2021/12/13 11:57:59;;;;;;;7.30;4.70;;;;;;;9.94;64.65;100698.06;117345;1183;24161;-59
2021/12/13 12:01:04;;;;;;;8.30;4.80;;;;;;;9.93;64.60;100699.29;117230;1182;23538;-60